Time;durP1;ratioP1;P1;durP2;ratioP2;P2;SDS_P1;SDS_P2;PMS_P1;PMS_P2;Temp;Humidity;BMP_temperature;BMP_pressure;BME280_temperature;BME280_humidity;BME280_pressure;Samples;Min_cycle;Max_cycle;Signal;HPM_P1;HPM_P2
2023/04/21 00:02:14;;;;;;;;;;;8.50;1.00;;;;;;5073535;28;19908;-75
2023/04/21 00:04:57;;;;;;;;;;;8.50;1.00;;;;;;5065878;28;19921;-76
2023/04/21 00:07:23;;;;;;;;;;;8.40;1.00;;;;;;5064205;28;19908;-76
2023/04/21 00:09:49;;;;;;;;;;;8.40;1.00;;;;;;5076003;28;20272;-75
2023/04/21 00:12:14;;;;;;;;;;;8.40;1.00;;;;;;5074668;28;19916;-76
2023/04/21 00:14:50;;;;;;;;;;;8.40;1.00;;;;;;5067911;28;19913;-75
2023/04/21 00:17:16;;;;;;;;;;;8.40;1.00;;;;;;5062660;28;19913;-76
2023/04/21 00:19:57;;;;;;;;;;;8.50;1.00;;;;;;5080012;28;19958;-75
2023/04/21 00:22:23;;;;;;;;;;;8.40;1.00;;;;;;5054597;28;19909;-75
2023/04/21 00:24:48;;;;;;;;;;;8.50;1.00;;;;;;5055093;28;19962;-75
2023/04/21 00:27:20;;;;;;;;;;;8.40;1.00;;;;;;5062484;28;19913;-76
2023/04/21 00:29:50;;;;;;;;;;;8.40;1.00;;;;;;5059354;28;20380;-75
2023/04/21 00:32:16;;;;;;;;;;;8.40;1.00;;;;;;5054193;28;19921;-76
2023/04/21 00:34:42;;;;;;;;;;;8.40;1.00;;;;;;5054571;28;19976;-75
2023/04/21 00:37:09;;;;;;;;;;;8.40;1.00;;;;;;5059820;28;19916;-75
2023/04/21 00:39:39;;;;;;;;;;;8.30;1.00;;;;;;5078120;28;19923;-76
2023/04/21 00:42:08;;;;;;;;;;;8.30;1.00;;;;;;5095192;28;19908;-75
2023/04/21 00:44:38;;;;;;;;;;;8.20;1.00;;;;;;5071630;28;20054;-76
2023/04/21 00:47:15;;;;;;;;;;;8.10;1.00;;;;;;5067998;28;19958;-76
2023/04/21 00:49:51;;;;;;;;;;;8.10;1.00;;;;;;5058683;28;19908;-75
2023/04/21 00:52:17;;;;;;;;;;;8.00;1.00;;;;;;5074662;28;19957;-76
2023/04/21 00:54:43;;;;;;;;;;;8.00;1.00;;;;;;5074110;28;20343;-76
2023/04/21 01:00:11;;;;;;;;;;;7.90;1.00;;;;;;5059293;28;19923;-79
2023/04/21 01:02:39;;;;;;;;;;;7.80;1.30;;;;;;5074170;28;19909;-78
2023/04/21 01:08:21;;;;;;;;;;;7.80;4.00;;;;;;5087697;28;19996;-78
2023/04/21 01:10:50;;;;;;;;;;;7.80;4.60;;;;;;5075450;28;19912;-78
2023/04/21 01:13:26;;;;;;;;;;;7.70;4.90;;;;;;5053718;28;19912;-80
2023/04/21 01:16:03;;;;;;;;;;;7.60;5.80;;;;;;5054094;28;19912;-79
2023/04/21 01:18:33;;;;;;;;;;;7.60;6.50;;;;;;5070524;28;19962;-79
2023/04/21 01:21:09;;;;;;;;;;;7.50;8.20;;;;;;5063011;28;19917;-79
2023/04/21 01:23:39;;;;;;;;;;;7.50;9.00;;;;;;5069101;28;19971;-79
2023/04/21 01:29:33;;;;;;;;;;;7.40;10.90;;;;;;5058935;28;19919;-78
2023/04/21 01:35:02;;;;;;;;;;;7.30;9.90;;;;;;5053609;28;20106;-79
2023/04/21 01:37:50;;;;;;;;;;;7.30;8.40;;;;;;5065956;28;19959;-79
2023/04/21 01:40:26;;;;;;;;;;;7.20;9.00;;;;;;5056409;28;19932;-79
2023/04/21 01:42:52;;;;;;;;;;;7.20;10.10;;;;;;5053831;28;19908;-76
2023/04/21 01:45:18;;;;;;;;;;;7.10;10.80;;;;;;5068716;28;20003;-76
2023/04/21 01:47:44;;;;;;;;;;;7.10;12.70;;;;;;5063906;28;19952;-75
2023/04/21 01:50:15;;;;;;;;;;;7.10;10.60;;;;;;5062892;28;19913;-75
2023/04/21 01:52:40;;;;;;;;;;;7.10;9.80;;;;;;5074064;28;20364;-76
2023/04/21 01:55:13;;;;;;;;;;;7.00;8.90;;;;;;5073628;28;19919;-75
2023/04/21 01:57:39;;;;;;;;;;;7.00;8.20;;;;;;5073429;28;20003;-75
2023/04/21 02:00:06;;;;;;;;;;;7.00;12.30;;;;;;5088737;28;19954;-76
2023/04/21 02:02:32;;;;;;;;;;;6.90;12.10;;;;;;5097535;28;19914;-76
2023/04/21 02:04:58;;;;;;;;;;;7.00;11.60;;;;;;5088053;28;19916;-76
2023/04/21 02:07:27;;;;;;;;;;;6.90;10.30;;;;;;5083418;28;20067;-76
2023/04/21 02:10:02;;;;;;;;;;;6.90;8.80;;;;;;5095230;28;19918;-75
2023/04/21 02:12:28;;;;;;;;;;;6.90;7.30;;;;;;5097581;28;19935;-76
2023/04/21 02:14:57;;;;;;;;;;;6.80;10.20;;;;;;5076140;28;20349;-76
2023/04/21 02:17:22;;;;;;;;;;;6.80;12.00;;;;;;5069400;28;19912;-75
2023/04/21 02:19:57;;;;;;;;;;;6.80;12.90;;;;;;5079173;28;19924;-75
2023/04/21 02:22:22;;;;;;;;;;;6.80;12.40;;;;;;5056829;28;19958;-76
2023/04/21 02:24:49;;;;;;;;;;;6.70;14.20;;;;;;5056930;28;20475;-75
2023/04/21 02:27:14;;;;;;;;;;;6.60;13.10;;;;;;5077610;28;19996;-76
2023/04/21 02:29:57;;;;;;;;;;;6.60;18.20;;;;;;5081996;28;19957;-75
2023/04/21 02:32:22;;;;;;;;;;;6.50;16.70;;;;;;5096808;28;19915;-75
2023/04/21 02:34:48;;;;;;;;;;;6.50;18.40;;;;;;5084901;28;19913;-75
2023/04/21 02:37:15;;;;;;;;;;;6.50;18.30;;;;;;5078197;28;20263;-76
2023/04/21 02:39:50;;;;;;;;;;;6.60;18.10;;;;;;5074064;28;19924;-76
2023/04/21 02:45:19;;;;;;;;;;;6.60;16.20;;;;;;5056037;28;19932;-79
2023/04/21 02:47:58;;;;;;;;;;;6.60;14.90;;;;;;5067030;28;20348;-79
2023/04/21 02:50:52;;;;;;;;;;;6.60;15.20;;;;;;5073590;28;19936;-79
2023/04/21 02:56:20;;;;;;;;;;;6.60;14.80;;;;;;5055955;28;19938;-76
2023/04/21 02:58:46;;;;;;;;;;;6.70;17.70;;;;;;5080307;28;19916;-75
2023/04/21 03:01:15;;;;;;;;;;;6.60;18.60;;;;;;5056070;28;19908;-76
2023/04/21 03:03:40;;;;;;;;;;;6.60;18.10;;;;;;5055793;28;19913;-76
2023/04/21 03:06:06;;;;;;;;;;;6.60;19.80;;;;;;5055003;28;19909;-75
2023/04/21 03:08:39;;;;;;;;;;;6.60;20.80;;;;;;5074880;28;20302;-75
2023/04/21 03:11:04;;;;;;;;;;;6.60;21.60;;;;;;5074807;28;19916;-76
2023/04/21 03:13:39;;;;;;;;;;;6.50;22.30;;;;;;5063522;28;19935;-78
2023/04/21 03:16:21;;;;;;;;;;;6.50;22.60;;;;;;5055869;28;19912;-78
2023/04/21 03:18:57;;;;;;;;;;;6.40;23.90;;;;;;5076726;28;19961;-79
2023/04/21 03:21:26;;;;;;;;;;;6.40;24.70;;;;;;5081915;28;19934;-79
2023/04/21 03:27:09;;;;;;;;;;;6.40;25.40;;;;;;5055751;28;19959;-78
2023/04/21 03:32:45;;;;;;;;;;;6.40;27.30;;;;;;5081094;28;19927;-78
2023/04/21 03:38:13;;;;;;;;;;;6.40;22.80;;;;;;5074801;28;20006;-78
2023/04/21 03:40:39;;;;;;;;;;;6.40;22.40;;;;;;5059659;28;20367;-78
2023/04/21 03:55:16;;;;;;;;;;;6.30;20.10;;;;;;5088623;28;19919;-90
2023/04/21 04:03:48;;;;;;;;;;;6.20;19.00;;;;;;5055341;28;19958;-92
2023/04/21 04:09:45;;;;;;;;;;;6.10;22.40;;;;;;5061077;28;19919;-92
2023/04/21 04:15:14;;;;;;;;;;;6.20;27.00;;;;;;5070434;28;19919;-91
2023/04/21 04:21:09;;;;;;;;;;;6.30;27.80;;;;;;5079284;28;19969;-91
2023/04/21 04:26:37;;;;;;;;;;;6.40;31.60;;;;;;5074849;28;20421;-91
2023/04/21 04:29:28;;;;;;;;;;;6.50;30.00;;;;;;5074407;28;19908;-91
2023/04/21 04:32:19;;;;;;;;;;;6.50;30.00;;;;;;5093031;28;19912;-91
2023/04/21 04:35:15;;;;;;;;;;;6.50;32.20;;;;;;5074026;28;19936;-91
2023/04/21 04:38:06;;;;;;;;;;;6.60;34.60;;;;;;5074154;28;20364;-92
2023/04/21 04:59:30;;;;;;;;;;;6.90;34.40;;;;;;5061482;28;19931;-87
2023/04/21 05:08:02;;;;;;;;;;;6.90;29.80;;;;;;5094397;28;19919;-86
2023/04/21 05:10:57;;;;;;;;;;;7.00;36.60;;;;;;5084377;28;19908;-86
2023/04/21 05:25:37;;;;;;;;;;;7.20;30.70;;;;;;5054215;28;19916;-86
2023/04/21 05:28:09;;;;;;;;;;;7.30;31.00;;;;;;5070024;28;19919;-86
2023/04/21 05:36:41;;;;;;;;;;;7.50;29.50;;;;;;5057459;28;19939;-83
2023/04/21 05:42:21;;;;;;;;;;;7.70;27.70;;;;;;5077137;28;19965;-82
2023/04/21 05:44:51;;;;;;;;;;;7.80;25.40;;;;;;5077861;28;19915;-82
2023/04/21 05:47:39;;;;;;;;;;;7.90;23.90;;;;;;5077239;28;20390;-82
2023/04/21 05:50:09;;;;;;;;;;;7.90;22.10;;;;;;5076814;28;19915;-82
2023/04/21 05:58:41;;;;;;;;;;;8.20;20.40;;;;;;5071827;28;19920;-84
2023/04/21 06:01:33;;;;;;;;;;;8.40;17.90;;;;;;5064894;28;20356;-84
2023/04/21 06:07:06;;;;;;;;;;;8.50;22.10;;;;;;5074982;28;19915;-85
2023/04/21 06:15:37;;;;;;;;;;;9.00;21.40;;;;;;5057442;28;19919;-85
2023/04/21 06:18:03;;;;;;;;;;;9.30;16.30;;;;;;5072505;28;19909;-85
2023/04/21 06:20:33;;;;;;;;;;;9.40;12.40;;;;;;5059606;28;19959;-85
2023/04/21 06:22:59;;;;;;;;;;;9.60;10.90;;;;;;5055881;28;19916;-85
2023/04/21 06:25:24;;;;;;;;;;;9.80;9.70;;;;;;5072158;28;20352;-85
2023/04/21 06:27:57;;;;;;;;;;;9.90;1.80;;;;;;5075561;28;19954;-85
2023/04/21 06:33:25;;;;;;;;;;;10.20;1.00;;;;;;5096581;28;19915;-84
2023/04/21 06:36:00;;;;;;;;;;;10.40;1.00;;;;;;5095964;28;19912;-84
2023/04/21 06:38:25;;;;;;;;;;;10.50;1.00;;;;;;5093154;28;20355;-85
2023/04/21 06:40:51;;;;;;;;;;;10.60;1.00;;;;;;5076136;28;19908;-85
2023/04/21 06:46:19;;;;;;;;;;;10.80;1.00;;;;;;5075355;28;19920;-84
2023/04/21 06:48:45;;;;;;;;;;;11.00;1.00;;;;;;5076144;28;19909;-84
2023/04/21 06:57:16;;;;;;;;;;;11.40;1.00;;;;;;5071643;28;19966;-84
2023/04/21 06:59:42;;;;;;;;;;;11.70;1.00;;;;;;5070742;28;19921;-85
2023/04/21 07:02:15;;;;;;;;;;;11.90;1.00;;;;;;5057069;28;20318;-85
2023/04/21 07:07:43;;;;;;;;;;;12.40;1.00;;;;;;5076040;28;19959;-85
2023/04/21 07:10:09;;;;;;;;;;;12.70;1.00;;;;;;5075399;28;19908;-85
2023/04/21 07:12:35;;;;;;;;;;;12.90;1.00;;;;;;5070473;28;19975;-85
2023/04/21 07:18:03;;;;;;;;;;;13.20;1.00;;;;;;5066398;28;20600;-84
2023/04/21 07:23:28;;;;;;;;;;;13.30;1.00;;;;;;5056036;28;20061;-84
2023/04/21 07:25:54;;;;;;;;;;;13.40;1.00;;;;;;5070940;28;19916;-84
2023/04/21 07:31:47;;;;;;;;;;;13.50;1.00;;;;;;5055541;28;19920;-86
2023/04/21 07:34:21;;;;;;;;;;;13.60;1.00;;;;;;5054457;28;19957;-86
2023/04/21 07:37:03;;;;;;;;;;;13.70;1.00;;;;;;5054582;28;19919;-86
2023/04/21 07:39:28;;;;;;;;;;;13.70;1.00;;;;;;5059316;28;19917;-86
2023/04/21 07:41:54;;;;;;;;;;;13.80;1.00;;;;;;5073965;28;19924;-85
2023/04/21 07:47:23;;;;;;;;;;;13.80;1.00;;;;;;5071211;28;19951;-84
2023/04/21 07:55:55;;;;;;;;;;;13.70;1.00;;;;;;5057986;28;19965;-85
2023/04/21 07:58:21;;;;;;;;;;;13.90;1.00;;;;;;5054319;28;20003;-84
2023/04/21 08:00:46;;;;;;;;;;;13.70;1.00;;;;;;5055516;28;20345;-85
2023/04/21 08:03:12;;;;;;;;;;;14.60;1.00;;;;;;5069434;28;19912;-85
2023/04/21 08:05:37;;;;;;;;;;;14.20;1.00;;;;;;5072747;28;20304;-85
2023/04/21 08:08:03;;;;;;;;;;;13.50;1.00;;;;;;5069814;28;20015;-84
2023/04/21 08:10:28;;;;;;;;;;;13.40;1.00;;;;;;5060671;28;19919;-84
2023/04/21 08:12:54;;;;;;;;;;;14.40;1.00;;;;;;5073955;28;20352;-84
2023/04/21 08:15:19;;;;;;;;;;;13.50;1.00;;;;;;5055028;28;19959;-85
2023/04/21 08:17:45;;;;;;;;;;;13.70;1.00;;;;;;5070385;28;19962;-86
2023/04/21 08:20:11;;;;;;;;;;;14.00;1.00;;;;;;5055265;28;19924;-86
2023/04/21 08:22:36;;;;;;;;;;;14.20;1.00;;;;;;5057145;28;20291;-73
2023/04/21 08:25:02;;;;;;;;;;;14.50;1.00;;;;;;5057795;28;19914;-74
2023/04/21 08:27:28;;;;;;;;;;;14.50;1.00;;;;;;5070067;28;19913;-73
2023/04/21 08:29:54;;;;;;;;;;;14.70;1.00;;;;;;5073521;28;19976;-73
2023/04/21 08:32:23;;;;;;;;;;;14.90;1.00;;;;;;5072798;28;19908;-73
2023/04/21 08:34:50;;;;;;;;;;;15.00;1.00;;;;;;5072993;28;19909;-73
2023/04/21 08:37:17;;;;;;;;;;;15.10;1.00;;;;;;5072023;28;20352;-73
2023/04/21 08:39:42;;;;;;;;;;;15.20;1.00;;;;;;5072335;28;19909;-73
2023/04/21 08:42:08;;;;;;;;;;;15.30;1.00;;;;;;5073423;28;20060;-74
2023/04/21 08:44:34;;;;;;;;;;;15.30;1.00;;;;;;5073587;28;19920;-73
2023/04/21 08:47:00;;;;;;;;;;;15.20;1.00;;;;;;5072482;28;19908;-73
2023/04/21 08:49:28;;;;;;;;;;;15.30;1.00;;;;;;5071896;28;19958;-73
2023/04/21 08:51:54;;;;;;;;;;;15.40;1.00;;;;;;5073708;28;19909;-73
2023/04/21 08:54:20;;;;;;;;;;;15.60;1.00;;;;;;5073392;28;19915;-73
2023/04/21 08:56:46;;;;;;;;;;;15.70;1.00;;;;;;5071964;28;19916;-74
2023/04/21 08:59:12;;;;;;;;;;;15.70;1.00;;;;;;5073117;28;19913;-74
2023/04/21 09:01:56;;;;;;;;;;;15.90;1.00;;;;;;5066685;28;19920;-73
2023/04/21 09:04:22;;;;;;;;;;;16.00;1.00;;;;;;5052668;28;19919;-73
2023/04/21 09:06:47;;;;;;;;;;;16.00;1.00;;;;;;5052957;28;19912;-73
2023/04/21 09:09:13;;;;;;;;;;;15.90;1.00;;;;;;5058760;28;19999;-73
2023/04/21 09:11:38;;;;;;;;;;;15.70;1.00;;;;;;5077225;28;20016;-73
2023/04/21 09:14:03;;;;;;;;;;;15.80;1.00;;;;;;5076899;28;19920;-73
2023/04/21 09:16:32;;;;;;;;;;;15.70;1.00;;;;;;5077346;28;19913;-74
2023/04/21 09:18:59;;;;;;;;;;;15.80;1.00;;;;;;5075644;28;20267;-75
2023/04/21 09:21:26;;;;;;;;;;;15.80;1.00;;;;;;5077141;28;19934;-75
2023/04/21 09:23:54;;;;;;;;;;;15.90;1.00;;;;;;5077067;28;19943;-75
2023/04/21 09:26:23;;;;;;;;;;;16.00;1.00;;;;;;5082572;28;19908;-75
2023/04/21 09:28:50;;;;;;;;;;;15.90;1.00;;;;;;5079960;28;19959;-75
2023/04/21 09:31:18;;;;;;;;;;;15.90;1.00;;;;;;5076897;28;19948;-74
2023/04/21 09:33:45;;;;;;;;;;;15.90;1.00;;;;;;5076907;28;20287;-74
2023/04/21 09:36:16;;;;;;;;;;;15.80;1.00;;;;;;5075462;28;19913;-74
2023/04/21 09:38:42;;;;;;;;;;;15.90;1.00;;;;;;5076759;28;19908;-74
2023/04/21 09:41:08;;;;;;;;;;;15.80;1.00;;;;;;5076533;28;20346;-74
2023/04/21 09:43:33;;;;;;;;;;;15.70;1.00;;;;;;5076994;28;20015;-74
2023/04/21 09:46:01;;;;;;;;;;;15.80;1.00;;;;;;5076548;28;19931;-73
2023/04/21 09:48:29;;;;;;;;;;;15.90;1.00;;;;;;5077134;28;19935;-73
2023/04/21 09:50:56;;;;;;;;;;;15.90;1.00;;;;;;5074979;28;20352;-74
2023/04/21 09:53:23;;;;;;;;;;;16.00;1.00;;;;;;5075146;28;19955;-73
2023/04/21 09:55:50;;;;;;;;;;;16.20;1.00;;;;;;5074835;28;19946;-74
2023/04/21 09:58:19;;;;;;;;;;;16.00;1.00;;;;;;5076748;28;19920;-73
2023/04/21 10:00:48;;;;;;;;;;;16.20;1.00;;;;;;5076859;28;19908;-73
2023/04/21 10:03:14;;;;;;;;;;;16.40;1.00;;;;;;5063256;28;20375;-75
2023/04/21 10:05:40;;;;;;;;;;;16.50;1.00;;;;;;5057116;28;19920;-75
2023/04/21 10:08:07;;;;;;;;;;;16.80;1.00;;;;;;5068172;28;19913;-74
2023/04/21 10:10:39;;;;;;;;;;;16.80;1.00;;;;;;5075035;28;19912;-74
2023/04/21 10:13:12;;;;;;;;;;;17.00;1.00;;;;;;5076620;28;19923;-74
2023/04/21 10:15:40;;;;;;;;;;;17.20;1.00;;;;;;5075370;28;20008;-74
2023/04/21 10:18:13;;;;;;;;;;;17.40;1.00;;;;;;5076270;28;19970;-74
2023/04/21 10:21:00;;;;;;;;;;;17.90;1.00;;;;;;5064593;28;19912;-75
2023/04/21 10:23:29;;;;;;;;;;;18.00;1.00;;;;;;5076540;28;20379;-74
2023/04/21 10:26:05;;;;;;;;;;;17.90;1.00;;;;;;5076371;28;19909;-74
2023/04/21 10:28:46;;;;;;;;;;;17.50;1.00;;;;;;5075124;28;19920;-75
2023/04/21 10:31:33;;;;;;;;;;;17.40;1.00;;;;;;5074656;28;19920;-74
2023/04/21 10:34:04;;;;;;;;;;;17.50;1.00;;;;;;5076613;28;19920;-74
2023/04/21 10:36:50;;;;;;;;;;;17.50;1.00;;;;;;5071326;28;19963;-75
2023/04/21 10:39:32;;;;;;;;;;;17.50;1.00;;;;;;5076019;28;19919;-75
2023/04/21 10:45:03;;;;;;;;;;;17.50;1.00;;;;;;5075544;28;19919;-75
2023/04/21 10:53:42;;;;;;;;;;;17.90;1.00;;;;;;5076505;28;19962;-90
2023/04/21 10:56:15;;;;;;;;;;;18.00;1.00;;;;;;5063316;28;19917;-90
2023/04/21 11:02:09;;;;;;;;;;;18.40;1.00;;;;;;5074878;28;19951;-91
2023/04/21 11:04:38;;;;;;;;;;;18.60;1.00;;;;;;5071790;28;19917;-89
2023/04/21 11:07:27;;;;;;;;;;;18.30;1.00;;;;;;5055562;28;19913;-89
2023/04/21 11:19:02;;;;;;;;;;;18.90;1.00;;;;;;5076365;28;20008;-87
2023/04/21 11:21:28;;;;;;;;;;;19.30;1.00;;;;;;5082715;28;19939;-87
2023/04/21 11:24:15;;;;;;;;;;;19.30;1.00;;;;;;5093585;28;19912;-87
2023/04/21 11:30:09;;;;;;;;;;;19.40;1.00;;;;;;5075617;28;19915;-87
2023/04/21 11:33:03;;;;;;;;;;;19.50;1.00;;;;;;5070076;28;20279;-87
2023/04/21 11:35:45;;;;;;;;;;;19.60;1.00;;;;;;5075399;28;19920;-90
2023/04/21 11:41:23;;;;;;;;;;;19.20;1.00;;;;;;5075376;28;19924;-90
2023/04/21 11:46:52;;;;;;;;;;;19.00;1.00;;;;;;5087946;28;20449;-89
2023/04/21 11:49:39;;;;;;;;;;;18.80;1.00;;;;;;5095211;28;19912;-86
2023/04/21 11:55:08;;;;;;;;;;;18.90;1.00;;;;;;5075354;28;19915;-86
2023/04/21 12:00:37;;;;;;;;;;;18.70;1.00;;;;;;5075028;28;20433;-87
2023/04/21 12:06:06;;;;;;;;;;;19.10;1.00;;;;;;5070147;28;19919;-91
2023/04/21 12:14:37;;;;;;;;;;;19.80;1.00;;;;;;5069123;28;19958;-88
2023/04/21 12:17:15;;;;;;;;;;;19.90;1.00;;;;;;5073769;28;19913;-87
2023/04/21 12:19:45;;;;;;;;;;;20.10;1.00;;;;;;5073764;28;19913;-86
2023/04/21 12:25:14;;;;;;;;;;;20.00;1.00;;;;;;5074900;28;19963;-86
2023/04/21 12:27:57;;;;;;;;;;;19.80;1.00;;;;;;5086201;28;19959;-87
2023/04/21 12:33:26;;;;;;;;;;;20.00;1.00;;;;;;5074292;28;19957;-90
2023/04/21 12:41:57;;;;;;;;;;;20.30;1.00;;;;;;5073951;28;20287;-89
2023/04/21 12:50:29;;;;;;;;;;;20.10;1.00;;;;;;5074087;28;19915;-87
2023/04/21 12:55:58;;;;;;;;;;;19.90;1.00;;;;;;5074069;28;20047;-87
2023/04/21 13:05:08;;;;;;;;;;;19.30;1.00;;;;;;5074575;28;19938;-84
2023/04/21 13:10:36;;;;;;;;;;;19.40;1.00;;;;;;5074080;28;19920;-88
2023/04/21 13:13:27;;;;;;;;;;;19.50;1.00;;;;;;5073337;28;19908;-86
2023/04/21 13:18:56;;;;;;;;;;;19.50;1.00;;;;;;5074051;28;19951;-87
2023/04/21 13:21:40;;;;;;;;;;;19.30;1.00;;;;;;5073752;28;19908;-87
2023/04/21 13:24:33;;;;;;;;;;;19.20;1.00;;;;;;5073367;28;19909;-86
2023/04/21 13:30:02;;;;;;;;;;;19.10;1.00;;;;;;5074144;28;19915;-87
2023/04/21 13:35:31;;;;;;;;;;;19.00;1.00;;;;;;5072292;28;19958;-87
2023/04/21 13:37:56;;;;;;;;;;;19.10;1.00;;;;;;5075207;28;19912;-87
2023/04/21 13:43:25;;;;;;;;;;;19.40;1.00;;;;;;5072224;28;20279;-86
2023/04/21 13:48:54;;;;;;;;;;;19.50;1.00;;;;;;5054686;28;19915;-90
2023/04/21 13:54:33;;;;;;;;;;;19.60;1.00;;;;;;5092343;28;19922;-90
2023/04/21 14:00:27;;;;;;;;;;;19.80;1.00;;;;;;5077264;28;19920;-90
2023/04/21 14:06:33;;;;;;;;;;;20.00;1.00;;;;;;5073244;28;19919;-90
2023/04/21 14:12:02;;;;;;;;;;;20.20;1.00;;;;;;5057472;28;19920;-89
2023/04/21 14:17:31;;;;;;;;;;;20.20;1.00;;;;;;5076533;28;20015;-89
2023/04/21 14:23:03;;;;;;;;;;;20.60;1.00;;;;;;5076971;28;19919;-89
2023/04/21 14:25:39;;;;;;;;;;;20.60;1.00;;;;;;5077867;28;19919;-89
2023/04/21 14:34:11;;;;;;;;;;;20.80;1.00;;;;;;5076843;28;19930;-91
2023/04/21 14:36:41;;;;;;;;;;;20.70;1.00;;;;;;5076094;28;20403;-89
2023/04/21 14:42:10;;;;;;;;;;;20.80;1.00;;;;;;5076572;28;19943;-89
2023/04/21 14:53:52;;;;;;;;;;;22.90;1.00;;;;;;5068128;28;19962;-89
2023/04/21 15:02:38;;;;;;;;;;;24.20;1.00;;;;;;5078815;28;20406;-89
2023/04/21 15:05:15;;;;;;;;;;;25.40;1.00;;;;;;5076398;28;19938;-89
2023/04/21 15:10:55;;;;;;;;;;;26.90;1.00;;;;;;5081331;28;19931;-92
2023/04/21 15:13:41;;;;;;;;;;;27.90;1.00;;;;;;5078607;28;19909;-95
2023/04/21 15:16:25;;;;;;;;;;;28.30;1.00;;;;;;5078925;28;19912;-91
2023/04/21 15:18:58;;;;;;;;;;;29.00;1.00;;;;;;5071199;28;20000;-92
2023/04/21 15:25:03;;;;;;;;;;;29.30;1.00;;;;;;5074760;28;19927;-89
2023/04/21 15:36:38;;;;;;;;;;;31.00;1.00;;;;;;5081399;28;19941;-91
2023/04/21 15:45:18;;;;;;;;;;;33.00;1.00;;;;;;5074099;28;19924;-89
2023/04/21 15:48:03;;;;;;;;;;;31.80;1.00;;;;;;5074389;28;19995;-89
2023/04/21 15:53:36;;;;;;;;;;;33.30;1.00;;;;;;5059374;28;19919;-92
2023/04/21 15:59:27;;;;;;;;;;;33.50;1.00;;;;;;5074789;28;19919;-91
2023/04/21 16:04:56;;;;;;;;;;;32.40;1.00;;;;;;5073692;28;20057;-92
2023/04/21 16:14:03;;;;;;;;;;;33.10;1.00;;;;;;5059824;28;19919;-91
2023/04/21 16:19:33;;;;;;;;;;;34.60;1.00;;;;;;5072693;28;19919;-90
2023/04/21 16:22:05;;;;;;;;;;;34.60;1.00;;;;;;5074038;28;19909;-86
2023/04/21 16:27:34;;;;;;;;;;;34.90;1.00;;;;;;5073215;28;19982;-87
2023/04/21 16:30:10;;;;;;;;;;;35.60;1.00;;;;;;5074519;28;20370;-87
2023/04/21 16:32:45;;;;;;;;;;;35.70;1.00;;;;;;5072937;28;19909;-86
2023/04/21 16:38:14;;;;;;;;;;;34.70;1.00;;;;;;5073168;28;19923;-89
2023/04/21 16:40:57;;;;;;;;;;;35.00;1.00;;;;;;5056185;28;22732;-89
2023/04/21 16:46:26;;;;;;;;;;;35.80;1.00;;;;;;5074060;28;19920;-88
2023/04/21 16:51:55;;;;;;;;;;;36.20;1.00;;;;;;5074331;28;19918;-89
2023/04/21 16:54:33;;;;;;;;;;;36.30;1.00;;;;;;5073484;28;19999;-89
2023/04/21 16:57:23;;;;;;;;;;;35.90;1.00;;;;;;5072762;28;19927;-89
2023/04/21 17:03:15;;;;;;;;;;;33.50;1.00;;;;;;5057607;28;19923;-90
2023/04/21 17:05:41;;;;;;;;;;;32.80;1.00;;;;;;5074100;28;19912;-90
2023/04/21 17:14:28;;;;;;;;;;;31.00;1.00;;;;;;5065562;28;20435;-85
2023/04/21 17:20:28;;;;;;;;;;;29.20;1.00;;;;;;5069694;28;19919;-87
2023/04/21 17:26:22;;;;;;;;;;;27.00;1.00;;;;;;5074245;28;19916;-91
2023/04/21 17:28:58;;;;;;;;;;;25.60;1.00;;;;;;5067110;28;19921;-79
2023/04/21 17:31:45;;;;;;;;;;;24.60;1.00;;;;;;5070921;28;19928;-87
2023/04/21 17:43:20;;;;;;;;;;;21.60;1.00;;;;;;5069561;28;20020;-85
2023/04/21 17:45:52;;;;;;;;;;;20.90;1.00;;;;;;5065350;28;20382;-88
2023/04/21 17:48:17;;;;;;;;;;;20.60;1.00;;;;;;5065023;28;19916;-86
2023/04/21 17:50:43;;;;;;;;;;;20.20;1.00;;;;;;5083249;28;20264;-81
2023/04/21 17:53:09;;;;;;;;;;;20.00;1.00;;;;;;5068640;28;19909;-86
2023/04/21 17:58:52;;;;;;;;;;;19.40;1.00;;;;;;5059916;28;19917;-82
2023/04/21 18:04:23;;;;;;;;;;;18.30;1.00;;;;;;5059240;28;19931;-82
2023/04/21 18:06:51;;;;;;;;;;;17.90;1.00;;;;;;5064575;28;20002;-85
2023/04/21 18:09:39;;;;;;;;;;;17.60;1.00;;;;;;5076411;28;19962;-87
2023/04/21 18:12:16;;;;;;;;;;;17.50;1.00;;;;;;5069622;28;19958;-83
2023/04/21 18:17:45;;;;;;;;;;;17.20;1.00;;;;;;5075793;28;20382;-89
2023/04/21 18:32:22;;;;;;;;;;;16.50;1.00;;;;;;5057936;28;19962;-86
2023/04/21 18:35:21;;;;;;;;;;;16.20;1.00;;;;;;5072256;28;19909;-86
2023/04/21 18:37:47;;;;;;;;;;;16.10;1.00;;;;;;5075519;28;19962;-86
2023/04/21 18:40:13;;;;;;;;;;;15.90;1.00;;;;;;5071356;28;19909;-86
2023/04/21 18:42:38;;;;;;;;;;;15.90;1.00;;;;;;5073166;28;19948;-86
2023/04/21 18:45:22;;;;;;;;;;;15.80;1.00;;;;;;5075875;28;19909;-87
2023/04/21 18:47:47;;;;;;;;;;;15.70;1.00;;;;;;5075496;28;19924;-86
2023/04/21 18:50:13;;;;;;;;;;;15.70;1.00;;;;;;5075543;28;19912;-89
2023/04/21 18:52:46;;;;;;;;;;;15.70;1.00;;;;;;5074925;28;20473;-89
2023/04/21 18:55:12;;;;;;;;;;;15.60;1.00;;;;;;5076980;28;19909;-90
2023/04/21 18:57:38;;;;;;;;;;;15.50;1.00;;;;;;5075309;28;20395;-90
2023/04/21 19:00:05;;;;;;;;;;;15.50;1.00;;;;;;5076598;28;19913;-90
2023/04/21 19:03:04;;;;;;;;;;;15.40;1.00;;;;;;5066936;28;19978;-89
2023/04/21 19:05:58;;;;;;;;;;;15.30;1.00;;;;;;5074253;28;19913;-94
2023/04/21 19:08:28;;;;;;;;;;;15.20;1.00;;;;;;5076721;28;19908;-94
2023/04/21 19:17:06;;;;;;;;;;;15.00;1.00;;;;;;5096130;28;19923;-89
2023/04/21 19:19:32;;;;;;;;;;;14.90;1.00;;;;;;5094855;28;19956;-94
2023/04/21 19:21:58;;;;;;;;;;;14.80;1.00;;;;;;5075405;28;19913;-91
2023/04/21 19:24:28;;;;;;;;;;;14.70;1.00;;;;;;5077613;28;19982;-91
2023/04/21 19:26:53;;;;;;;;;;;14.70;1.00;;;;;;5073913;28;19909;-91
2023/04/21 19:29:19;;;;;;;;;;;14.70;1.00;;;;;;5074501;28;19912;-93
2023/04/21 19:31:45;;;;;;;;;;;14.70;1.00;;;;;;5071449;28;19962;-93
2023/04/21 19:49:40;;;;;;;;;;;14.30;1.00;;;;;;5075353;28;19927;-87
2023/04/21 19:55:08;;;;;;;;;;;14.20;1.00;;;;;;5096477;28;19954;-90
2023/04/21 19:57:34;;;;;;;;;;;14.20;1.00;;;;;;5094883;28;19959;-90
2023/04/21 20:03:28;;;;;;;;;;;14.20;1.00;;;;;;5094437;28;20278;-87
2023/04/21 20:15:04;;;;;;;;;;;13.90;1.00;;;;;;5066303;28;19919;-89
2023/04/21 20:23:36;;;;;;;;;;;13.60;1.00;;;;;;5054575;28;19916;-88
2023/04/21 20:29:10;;;;;;;;;;;13.40;1.00;;;;;;5067239;28;19919;-73
2023/04/21 20:31:40;;;;;;;;;;;13.30;1.00;;;;;;5080690;28;19908;-73
2023/04/21 20:34:10;;;;;;;;;;;13.30;1.00;;;;;;5092988;28;19913;-73
2023/04/21 20:36:35;;;;;;;;;;;13.30;1.00;;;;;;5085526;28;19917;-73
2023/04/21 20:39:03;;;;;;;;;;;13.20;1.00;;;;;;5054006;28;20283;-73
2023/04/21 20:41:30;;;;;;;;;;;13.00;1.00;;;;;;5054255;28;19915;-78
2023/04/21 20:43:55;;;;;;;;;;;12.90;1.00;;;;;;5074547;28;19913;-73
2023/04/21 20:46:22;;;;;;;;;;;12.80;1.00;;;;;;5056644;28;19909;-73
2023/04/21 20:48:48;;;;;;;;;;;12.70;1.00;;;;;;5074142;28;19915;-73
2023/04/21 20:51:14;;;;;;;;;;;12.70;1.00;;;;;;5073296;28;19917;-73
2023/04/21 20:53:39;;;;;;;;;;;12.60;1.00;;;;;;5073801;28;19935;-73
2023/04/21 20:56:05;;;;;;;;;;;12.60;1.00;;;;;;5073740;28;20428;-74
2023/04/21 21:01:37;;;;;;;;;;;12.50;1.00;;;;;;5073872;28;19946;-79
2023/04/21 21:04:03;;;;;;;;;;;12.40;1.00;;;;;;5075051;28;19908;-79
2023/04/21 21:06:34;;;;;;;;;;;12.40;1.00;;;;;;5078001;28;20043;-78
2023/04/21 21:09:10;;;;;;;;;;;12.40;1.00;;;;;;5063827;28;19994;-79
2023/04/21 21:11:36;;;;;;;;;;;12.30;1.00;;;;;;5086304;28;19908;-79
2023/04/21 21:14:04;;;;;;;;;;;12.30;1.00;;;;;;5073940;28;20284;-74
2023/04/21 21:16:40;;;;;;;;;;;12.30;1.00;;;;;;5057426;28;19913;-73
2023/04/21 21:19:06;;;;;;;;;;;12.20;1.00;;;;;;5077503;28;19912;-74
2023/04/21 21:21:31;;;;;;;;;;;12.20;1.00;;;;;;5060323;28;20405;-74
2023/04/21 21:23:57;;;;;;;;;;;12.20;1.00;;;;;;5077101;28;19916;-74
2023/04/21 21:26:22;;;;;;;;;;;12.10;1.00;;;;;;5076262;28;19920;-73
2023/04/21 21:28:52;;;;;;;;;;;12.00;1.00;;;;;;5076062;28;19935;-79
2023/04/21 21:31:34;;;;;;;;;;;12.00;1.00;;;;;;5077660;28;19916;-79
2023/04/21 21:34:34;;;;;;;;;;;11.90;1.00;;;;;;5077057;28;20425;-79
2023/04/21 21:37:04;;;;;;;;;;;11.80;1.00;;;;;;5081876;28;19981;-79
2023/04/21 21:40:04;;;;;;;;;;;11.90;1.00;;;;;;5097519;28;20394;-79
2023/04/21 21:42:34;;;;;;;;;;;11.90;1.00;;;;;;5090829;28;19999;-80
2023/04/21 21:45:04;;;;;;;;;;;11.80;1.00;;;;;;5095841;28;19915;-79
2023/04/21 21:47:31;;;;;;;;;;;11.90;1.00;;;;;;5079160;28;20007;-78
2023/04/21 21:49:58;;;;;;;;;;;11.90;1.00;;;;;;5063976;28;20347;-79
2023/04/21 21:52:28;;;;;;;;;;;11.80;1.00;;;;;;5076990;28;19917;-79
2023/04/21 21:54:54;;;;;;;;;;;11.80;1.00;;;;;;5058611;28;19935;-79
2023/04/21 22:00:41;;;;;;;;;;;11.80;1.00;;;;;;5056988;28;19970;-79
2023/04/21 22:03:07;;;;;;;;;;;11.80;1.00;;;;;;5059308;28;19998;-78
2023/04/21 22:05:40;;;;;;;;;;;11.80;1.00;;;;;;5076680;28;19964;-79
2023/04/21 22:08:22;;;;;;;;;;;11.80;1.00;;;;;;5076787;28;19958;-79
2023/04/21 22:11:04;;;;;;;;;;;11.80;1.00;;;;;;5087478;28;19920;-79
2023/04/21 22:16:34;;;;;;;;;;;11.80;1.00;;;;;;5082823;28;20012;-79
2023/04/21 22:19:10;;;;;;;;;;;11.70;1.00;;;;;;5059323;28;19928;-78